Time;durP1;ratioP1;P1;durP2;ratioP2;P2;SDS_P1;SDS_P2;PMS_P1;PMS_P2;Temp;Humidity;BMP_temperature;BMP_pressure;BME280_temperature;BME280_humidity;BME280_pressure;Samples;Min_cycle;Max_cycle;Signal;HPM_P1;HPM_P2
2022/09/10 06:25:30;;;;;;;1.75;1.50;;;;;;;13.56;100.00;101211.97;6213670;22;20017;-85
2022/09/10 06:43:30;;;;;;;2.08;1.33;;;;;;;14.43;100.00;101320.88;6183783;23;20036;-82
2022/09/10 06:45:57;;;;;;;3.15;1.75;;;;;;;15.09;100.00;101403.88;6151968;23;20036;-82
2022/09/10 06:48:27;;;;;;;1.60;1.20;;;;;;;15.08;100.00;101412.22;6182279;23;20068;-85
2022/09/10 06:58:38;;;;;;;2.35;1.20;;;;;;;13.97;100.00;101234.38;6206011;23;20021;-83
2022/09/10 07:01:09;;;;;;;2.00;1.08;;;;;;;13.69;100.00;101197.59;6186309;23;20024;-84
2022/09/10 07:06:17;;;;;;;1.20;1.10;;;;;;;14.79;100.00;101358.31;6184974;23;20021;-83
2022/09/10 07:13:53;;;;;;;1.02;0.93;;;;;;;15.27;100.00;101338.94;6207647;23;20027;-84
2022/09/10 07:16:20;;;;;;;1.33;1.00;;;;;;;14.41;100.00;101190.34;6213134;23;20037;-84
2022/09/10 07:18:51;;;;;;;1.45;0.93;;;;;;;15.79;100.00;101425.66;6163699;22;20016;-78
2022/09/10 07:21:18;;;;;;;2.22;0.90;;;;;;;14.43;100.00;101190.94;6187824;23;20013;-83
2022/09/10 07:23:46;;;;;;;2.55;0.98;;;;;;;14.85;100.00;101242.84;6212481;23;20215;-83
2022/09/10 07:26:14;;;;;;;0.95;0.85;;;;;;;14.56;100.00;101199.03;6186152;23;20009;-83
2022/09/10 07:28:43;;;;;;;2.13;0.93;;;;;;;15.16;100.00;101265.59;6212691;23;19989;-82
2022/09/10 07:31:15;;;;;;;1.90;0.98;;;;;;;15.89;100.00;101423.31;6186900;23;19989;-83
2022/09/10 07:33:42;;;;;;;0.90;0.80;;;;;;;14.44;100.00;101195.31;6187243;23;20005;-84
2022/09/10 09:19:44;;;;;;;2.40;1.00;;;;;;;16.95;98.02;101459.59;6182509;22;20032;31
2022/09/10 11:52:36;;;;;;;2.72;1.38;;;;;;;17.43;92.05;101449.88;6176712;22;20025;31
2022/09/10 12:06:00;;;;;;;2.25;1.30;;;;;;;17.42;91.75;101449.03;6196792;23;20017;-85
2022/09/10 12:08:42;;;;;;;3.85;1.40;;;;;;;16.96;92.53;101370.75;6212737;23;20000;-84
2022/09/10 12:11:33;;;;;;;1.83;1.27;;;;;;;17.45;92.32;101447.72;6187638;23;19989;-84
2022/09/10 12:35:36;;;;;;;2.35;1.23;;;;;;;17.69;88.74;101440.53;6205924;23;20013;-81
2022/09/10 12:38:40;;;;;;;5.30;1.20;;;;;;;17.43;88.40;101436.25;6212312;23;20024;-84
2022/09/10 12:43:40;;;;;;;1.38;1.00;;;;;;;17.51;90.29;101439.47;6187993;23;20005;-84
2022/09/10 12:46:09;;;;;;;1.80;1.17;;;;;;;17.31;90.46;101444.34;6183244;23;20021;-83
2022/09/10 13:04:37;;;;;;;2.65;1.38;;;;;;;16.63;91.32;101361.03;6180377;23;20005;-84
2022/09/10 13:07:26;;;;;;;2.75;1.40;;;;;;;15.75;91.07;101220.94;6213817;23;20020;-83
2022/09/10 13:15:05;;;;;;;1.40;0.98;;;;;;;17.44;90.32;101452.34;6213810;22;20093;-83
2022/09/10 13:17:49;;;;;;;4.28;1.20;;;;;;;17.46;90.05;101443.97;6212860;23;19997;-83
2022/09/10 13:20:18;;;;;;;2.03;1.02;;;;;;;17.45;89.67;101440.41;6187533;23;20004;-83
2022/09/10 13:23:02;;;;;;;3.30;1.17;;;;;;;16.55;89.59;101317.84;6188294;23;20083;-84
2022/09/10 13:25:42;;;;;;;2.07;1.10;;;;;;;17.38;89.49;101440.50;6187853;23;20016;-84
2022/09/10 13:28:30;;;;;;;1.73;1.10;;;;;;;17.34;88.51;101436.56;6188355;23;20147;-84
2022/09/10 13:31:11;;;;;;;3.88;1.10;;;;;;;17.44;89.23;101432.47;6188532;23;19989;-83
2022/09/10 13:33:50;;;;;;;1.10;0.73;;;;;;;17.67;88.62;101435.28;6188848;23;20005;-84
2022/09/10 13:36:38;;;;;;;1.73;1.10;;;;;;;17.76;88.32;101433.94;6187245;23;20001;-83
2022/09/10 13:39:26;;;;;;;1.67;1.02;;;;;;;16.19;88.42;101200.00;6186981;23;20012;-83
2022/09/10 13:44:36;;;;;;;2.08;0.93;;;;;;;17.69;88.83;101433.19;6238583;23;20107;-83
2022/09/10 13:47:21;;;;;;;;;;;;;;;17.67;88.53;101429.84;6216949;23;19996;-83
2022/09/10 13:49:50;;;;;;;2.38;1.20;;;;;;;17.75;88.59;101426.81;6238108;23;19899;-83
2022/09/10 13:52:20;;;;;;;2.92;0.90;;;;;;;17.66;88.06;101417.31;6243803;23;19997;-83
2022/09/10 13:54:50;;;;;;;1.70;1.17;;;;;;;16.84;87.98;101289.94;6217600;23;19993;-83
2022/09/10 13:57:43;;;;;;;3.63;1.13;;;;;;;16.80;86.55;101336.84;6243490;23;19988;-84
2022/09/10 14:00:12;;;;;;;3.40;1.10;;;;;;;17.54;87.73;101435.47;6244192;23;19993;-83
2022/09/10 14:02:52;;;;;;;2.90;1.00;;;;;;;16.06;87.79;101202.88;6243436;23;20012;-84
2022/09/10 14:05:22;;;;;;;2.58;1.02;;;;;;;16.33;88.18;101245.00;6243585;23;20014;-83
2022/09/10 14:07:50;;;;;;;3.20;1.10;;;;;;;16.18;89.03;101220.09;6243225;23;20012;-83
2022/09/10 14:10:17;;;;;;;2.65;1.10;;;;;;;16.07;89.17;101208.09;6217870;23;20009;-80
2022/09/10 14:12:44;;;;;;;2.20;1.10;;;;;;;16.24;90.08;101261.81;6213865;23;20017;-81
2022/09/10 14:15:17;;;;;;;1.73;1.02;;;;;;;16.28;90.95;101263.84;6216458;23;20015;-80
2022/09/10 14:17:49;;;;;;;1.23;1.10;;;;;;;16.09;90.80;101227.72;6241925;23;19997;-80
2022/09/10 14:20:25;;;;;;;2.03;1.27;;;;;;;17.44;90.64;101437.91;6242665;23;20048;-82
2022/09/10 14:23:03;;;;;;;2.00;1.08;;;;;;;16.46;90.04;101276.59;6237700;23;20011;-83
2022/09/10 14:25:36;;;;;;;1.10;1.00;;;;;;;17.60;90.47;101431.84;6206885;23;20004;-81
2022/09/10 14:28:21;;;;;;;2.63;1.23;;;;;;;16.09;90.39;101213.28;6240901;23;20058;-80
2022/09/10 14:30:47;;;;;;;;;;;;;;;17.45;90.42;101432.25;6242594;23;19993;-80
2022/09/10 14:33:32;;;;;;;2.03;1.10;;;;;;;17.51;91.20;101431.31;6217700;23;19912;-84
2022/09/10 14:36:21;;;;;;;1.42;0.98;;;;;;;17.07;89.86;101356.38;6243583;23;20008;-84
2022/09/10 14:38:53;;;;;;;1.65;1.00;;;;;;;17.44;89.81;101430.56;6217945;23;20008;-84
2022/09/10 14:44:26;;;;;;;2.25;1.00;;;;;;;17.60;89.18;101435.38;6207102;23;20035;-83
2022/09/10 14:46:53;;;;;;;2.13;1.30;;;;;;;17.67;89.84;101429.84;6187246;23;20024;-84
2022/09/10 14:49:40;;;;;;;2.78;0.95;;;;;;;16.11;90.07;101208.47;6187026;23;20001;-82
2022/09/10 14:52:06;;;;;;;3.20;1.30;;;;;;;17.53;89.88;101422.94;6187632;23;20005;-83
2022/09/10 14:54:34;;;;;;;3.95;1.48;;;;;;;17.53;90.95;101433.81;6213448;23;20036;-83
2022/09/10 14:57:08;;;;;;;2.15;1.10;;;;;;;15.95;90.82;101216.16;6187664;23;20004;-83
2022/09/10 14:59:39;;;;;;;3.40;1.50;;;;;;;15.88;91.43;101218.09;6213195;23;20012;-82
2022/09/10 15:02:16;;;;;;;5.03;1.35;;;;;;;16.21;91.39;101273.94;6212930;23;20016;-83
2022/09/10 15:04:42;;;;;;;3.97;1.30;;;;;;;15.75;91.84;101196.53;6187940;23;19993;-83
2022/09/10 15:07:09;;;;;;;2.63;1.25;;;;;;;16.07;91.53;101240.66;6212920;23;19993;-82
2022/09/10 15:12:27;;;;;;;4.57;1.15;;;;;;;17.32;91.42;101435.97;6212427;23;20005;-83
2022/09/10 15:17:28;;;;;;;2.15;1.15;;;;;;;16.54;92.35;101355.06;6184714;23;20001;-83
2022/09/10 15:22:30;;;;;;;2.33;1.20;;;;;;;16.25;92.34;101291.44;6158195;23;20526;-78
2022/09/10 15:24:58;;;;;;;2.08;1.30;;;;;;;16.16;92.29;101301.78;6242347;23;20052;-83
2022/09/10 15:27:23;;;;;;;3.55;1.10;;;;;;;15.44;92.41;101200.94;6242653;23;19993;-83
2022/09/10 15:29:49;;;;;;;2.75;1.10;;;;;;;16.22;91.89;101305.47;6242470;23;20069;-82
2022/09/10 15:32:17;;;;;;;2.85;1.10;;;;;;;15.64;92.21;101225.19;6217108;23;19996;-82
2022/09/10 15:34:43;;;;;;;5.05;1.10;;;;;;;15.82;92.31;101243.41;6244104;23;19992;-82
2022/09/10 15:37:08;;;;;;;1.88;1.17;;;;;;;15.57;91.72;101218.16;6243198;23;20015;-84
2022/09/10 15:39:37;;;;;;;2.25;1.00;;;;;;;15.53;91.30;101201.50;6216753;23;20012;-84
2022/09/10 15:42:05;;;;;;;5.20;1.23;;;;;;;16.84;92.42;101423.13;6216069;23;20004;-83
2022/09/10 15:44:32;;;;;;;1.70;1.10;;;;;;;15.86;92.96;101270.94;6243077;23;20039;-83
2022/09/10 15:46:58;;;;;;;3.10;1.05;;;;;;;16.73;92.62;101442.88;6216489;23;19992;-83
2022/09/10 15:49:24;;;;;;;2.30;0.90;;;;;;;15.63;91.71;101263.38;6215950;23;20074;-82
2022/09/10 15:51:52;;;;;;;2.00;0.75;;;;;;;15.92;91.73;101318.91;6242532;23;20020;-82
2022/09/10 15:54:19;;;;;;;3.05;0.90;;;;;;;15.14;91.92;101191.81;6214908;23;20012;-82
2022/09/10 15:56:45;;;;;;;3.03;0.93;;;;;;;16.20;92.22;101376.28;6242714;23;19993;-82
2022/09/10 15:59:13;;;;;;;4.65;1.10;;;;;;;15.72;92.46;101302.78;6216995;23;20043;-82
2022/09/10 16:01:39;;;;;;;3.95;0.90;;;;;;;16.29;92.70;101393.16;6216083;23;20075;-82
2022/09/10 16:14:25;;;;;;;3.33;0.82;;;;;;;15.28;93.84;101244.88;6188444;23;20020;-83
2022/09/10 16:16:52;;;;;;;3.95;1.00;;;;;;;15.26;94.14;101253.25;6181973;23;20013;-84
2022/09/10 16:19:19;;;;;;;4.60;1.10;;;;;;;15.81;93.25;101317.75;6156416;23;20002;-84
2022/09/10 16:21:45;;;;;;;3.22;1.00;;;;;;;15.20;93.82;101240.56;6182760;23;20057;-84
2022/09/10 16:24:11;;;;;;;2.35;1.10;;;;;;;15.77;93.52;101331.97;6181627;23;20002;-84
2022/09/10 16:26:39;;;;;;;2.08;1.17;;;;;;;15.33;93.80;101271.31;6132178;23;20074;-81
2022/09/10 16:29:11;;;;;;;3.00;1.10;;;;;;;15.64;94.55;101332.88;6156816;23;20011;-83
2022/09/10 16:36:49;;;;;;;3.17;1.02;;;;;;;16.44;94.48;101472.38;6210730;23;20013;-84
2022/09/10 16:39:17;;;;;;;3.22;1.00;;;;;;;16.40;94.75;101473.91;6187991;23;20016;-84
2022/09/10 16:41:47;;;;;;;1.55;1.00;;;;;;;15.26;94.44;101287.63;6213781;23;19996;-84
2022/09/10 16:44:14;;;;;;;3.60;1.10;;;;;;;15.12;94.49;101277.94;6212924;23;20031;-85
2022/09/10 16:46:41;;;;;;;2.72;1.05;;;;;;;16.41;95.05;101485.59;6179787;23;20084;-80
2022/09/10 20:14:58;;;;;;;3.92;2.10;;;;;;;14.26;100.00;101528.94;6179893;23;20949;31
2022/09/10 21:36:46;;;;;;;3.05;1.90;;;;;;;12.83;100.00;101545.94;6176948;22;20047;31
2022/09/10 21:39:14;;;;;;;2.88;1.80;;;;;;;11.75;100.00;101397.56;6183272;23;20008;-83
2022/09/10 21:46:51;;;;;;;4.65;1.77;;;;;;;11.77;100.00;101417.06;6197590;23;20015;-83
2022/09/10 21:49:17;;;;;;;3.58;2.13;;;;;;;11.01;100.00;101292.72;6214225;23;19992;-83
2022/09/10 21:51:44;;;;;;;7.25;1.90;;;;;;;11.05;100.00;101309.34;6188406;23;20017;-82
2022/09/10 21:54:15;;;;;;;5.50;1.92;;;;;;;11.99;100.00;101471.06;6188597;23;20020;-83
2022/09/10 21:56:41;;;;;;;5.70;1.60;;;;;;;11.18;100.00;101330.19;6208263;23;20009;-83
2022/09/10 21:59:09;;;;;;;4.57;1.85;;;;;;;10.89;100.00;101305.00;6188390;23;20016;-83
2022/09/10 22:01:35;;;;;;;3.10;1.73;;;;;;;11.46;100.00;101408.47;6188098;23;20056;-83
2022/09/10 22:04:00;;;;;;;4.70;2.00;;;;;;;11.41;100.00;101411.69;6213965;23;20017;-83
2022/09/10 22:27:35;;;;;;;4.47;2.08;;;;;;;10.23;100.00;101302.25;6204026;23;20114;-79
2022/09/10 22:30:03;;;;;;;3.78;1.80;;;;;;;10.63;100.00;101358.50;6163765;23;20021;-83
2022/09/10 22:32:30;;;;;;;3.17;2.22;;;;;;;10.20;100.00;101302.63;6187778;23;20020;-82
2022/09/10 22:34:56;;;;;;;3.17;2.05;;;;;;;11.02;100.00;101428.19;6189197;23;20300;-82
2022/09/10 22:42:32;;;;;;;5.88;2.30;;;;;;;10.35;100.00;101372.59;6209728;23;20025;-84
2022/09/10 22:44:59;;;;;;;3.95;2.15;;;;;;;11.62;100.00;101583.44;6188112;23;19997;-83
2022/09/10 22:47:25;;;;;;;5.13;2.10;;;;;;;11.52;100.00;101569.38;6189137;23;20011;-83
2022/09/10 22:49:51;;;;;;;6.53;1.90;;;;;;;9.93;100.00;101322.03;6213665;23;19999;-84
2022/09/10 22:52:16;;;;;;;3.28;2.08;;;;;;;11.52;100.00;101572.06;6187967;23;19992;-84
2022/09/10 22:54:44;;;;;;;5.03;1.77;;;;;;;10.07;100.00;101342.75;6163500;23;19993;-83
2022/09/10 22:57:09;;;;;;;5.32;2.40;;;;;;;11.58;100.00;101563.25;6163903;23;20017;-83
2022/09/10 22:59:36;;;;;;;3.72;2.10;;;;;;;10.20;100.00;101364.47;6210381;23;20008;-83
2022/09/10 23:02:03;;;;;;;3.85;2.25;;;;;;;10.62;100.00;101410.66;6188226;23;20001;-84
2022/09/10 23:04:30;;;;;;;5.05;2.33;;;;;;;9.88;100.00;101312.69;6188192;23;20016;-83
2022/09/10 23:06:56;;;;;;;4.65;1.98;;;;;;;10.09;100.00;101354.97;6188066;23;20001;-84
2022/09/10 23:09:22;;;;;;;3.88;2.05;;;;;;;9.93;100.00;101313.97;6213455;23;20028;-83
2022/09/10 23:11:48;;;;;;;5.00;2.17;;;;;;;10.64;100.00;101420.22;6187965;23;20028;-84
2022/09/10 23:21:59;;;;;;;3.28;2.00;;;;;;;10.15;100.00;101368.72;6215001;23;20039;-83
2022/09/10 23:24:25;;;;;;;3.55;2.20;;;;;;;9.81;100.00;101332.41;6188056;23;20000;-83
2022/09/10 23:26:52;;;;;;;3.97;2.50;;;;;;;9.62;100.00;101318.44;6213117;23;19997;-83
2022/09/10 23:29:19;;;;;;;4.50;2.03;;;;;;;10.07;100.00;101408.13;6163741;23;20008;-84
2022/09/10 23:31:46;;;;;;;6.05;2.60;;;;;;;9.67;100.00;101352.84;6213679;23;19987;-83
2022/09/10 23:34:17;;;;;;;4.78;2.30;;;;;;;9.67;100.00;101338.53;6164021;23;20005;-83
2022/09/10 23:36:45;;;;;;;6.05;2.40;;;;;;;9.53;100.00;101313.31;6209438;23;20000;-83
2022/09/10 23:39:19;;;;;;;5.55;2.42;;;;;;;9.61;100.00;101326.69;6187063;23;20013;-84
2022/09/10 23:41:45;;;;;;;4.50;2.28;;;;;;;10.60;100.00;101482.69;6188006;23;19990;-83
2022/09/10 23:44:11;;;;;;;4.28;2.38;;;;;;;9.89;100.00;101368.09;6186923;23;20061;-83
2022/09/10 23:46:37;;;;;;;4.80;2.15;;;;;;;9.53;100.00;101329.44;6213283;23;20005;-84
2022/09/10 23:49:04;;;;;;;6.70;2.58;;;;;;;9.80;100.00;101374.59;6187700;23;20013;-83
2022/09/10 23:51:30;;;;;;;5.43;2.47;;;;;;;10.51;100.00;101500.75;6212776;23;20013;-83
2022/09/10 23:53:56;;;;;;;5.13;2.63;;;;;;;11.04;100.00;101579.69;6187713;23;20000;-83
2022/09/10 23:56:24;;;;;;;6.32;2.40;;;;;;;9.33;100.00;101302.19;6213060;23;20006;-84
2022/09/10 23:58:51;;;;;;;3.25;2.38;;;;;;;9.25;100.00;101299.59;6187489;23;19993;-84
